Time;durP1;ratioP1;P1;durP2;ratioP2;P2;SDS_P1;SDS_P2;PMS_P1;PMS_P2;Temp;Humidity;BMP_temperature;BMP_pressure;BME280_temperature;BME280_humidity;BME280_pressure;Samples;Min_cycle;Max_cycle;Signal;HPM_P1;HPM_P2
2023/09/30 00:00:28;;;;;;;19.02;18.13;;;;;;;-141.02;84.46;42375.22;5114020;28;20280;-61
2023/09/30 00:02:55;;;;;;;19.50;18.60;;;;;;;-141.02;83.95;42379.06;5113979;28;20605;-61
2023/09/30 00:05:22;;;;;;;19.13;18.20;;;;;;;-141.02;84.78;42390.59;5114318;28;20201;-60
2023/09/30 00:07:51;;;;;;;18.98;18.08;;;;;;;-141.02;83.81;42375.22;5113796;28;20196;-58
2023/09/30 00:10:18;;;;;;;19.13;18.23;;;;;;;-141.02;83.64;42413.63;5113884;28;20193;-62
2023/09/30 00:12:45;;;;;;;19.40;18.50;;;;;;;-141.02;82.27;42404.03;5114084;28;20293;-59
2023/09/30 00:15:12;;;;;;;19.08;18.17;;;;;;;-141.02;81.78;42394.41;5114063;28;20189;-60
2023/09/30 00:17:39;;;;;;;19.60;18.60;;;;;;;-141.02;81.96;42394.41;5113991;28;20193;-64
2023/09/30 00:20:08;;;;;;;19.33;18.42;;;;;;;-141.02;80.10;42386.75;5113984;28;20197;-62
2023/09/30 00:22:35;;;;;;;19.42;18.42;;;;;;;-141.02;79.87;42421.28;5113694;28;20189;-59
2023/09/30 00:25:04;;;;;;;19.67;18.67;;;;;;;-141.02;80.77;42421.28;5113581;28;20209;-59
2023/09/30 00:27:31;;;;;;;20.13;19.13;;;;;;;-141.02;80.87;42432.81;5113533;28;20192;-60
2023/09/30 00:29:58;;;;;;;20.05;19.05;;;;;;;-141.02;79.84;42444.34;5113693;28;20316;-60
2023/09/30 00:32:25;;;;;;;19.85;18.85;;;;;;;-141.02;79.22;42440.50;5113686;28;20266;-62
2023/09/30 00:34:53;;;;;;;19.60;18.60;;;;;;;-141.02;79.58;42440.50;5113404;28;20228;-60
2023/09/30 00:37:21;;;;;;;20.08;19.08;;;;;;;-141.02;80.94;42423.22;5113308;28;20705;-61
2023/09/30 00:39:48;;;;;;;19.27;18.38;;;;;;;-141.02;80.17;42444.34;5113251;28;20686;-62
2023/09/30 00:42:16;;;;;;;20.13;19.13;;;;;;;-141.02;80.70;42428.97;5113515;28;20193;-61
2023/09/30 00:44:43;;;;;;;19.70;18.70;;;;;;;-141.02;80.02;42459.69;5113573;28;20543;-59
2023/09/30 00:47:11;;;;;;;19.73;18.73;;;;;;;-141.02;79.24;42436.66;5113191;28;20254;-63
2023/09/30 00:49:38;;;;;;;19.98;18.98;;;;;;;-141.02;79.28;42452.00;5113456;28;20203;-62
2023/09/30 00:52:05;;;;;;;19.88;18.88;;;;;;;-141.02;79.34;42461.59;5112988;28;20235;-60
2023/09/30 00:54:33;;;;;;;19.90;18.90;;;;;;;-141.02;79.99;42476.97;5112944;28;20734;-62
2023/09/30 00:57:01;;;;;;;19.85;18.85;;;;;;;-141.02;81.69;42444.34;5113308;28;20197;-64
2023/09/30 00:59:32;;;;;;;19.80;18.80;;;;;;;-141.02;82.18;42467.38;5112897;28;20188;-63
2023/09/30 01:02:02;;;;;;;19.42;18.52;;;;;;;-141.02;84.45;42404.03;5113343;28;20288;-59
2023/09/30 01:04:30;;;;;;;19.20;18.30;;;;;;;-141.02;85.59;42409.78;5112834;28;20554;-58
2023/09/30 01:06:58;;;;;;;19.25;18.35;;;;;;;-141.02;84.14;42457.75;5113122;28;20193;-60
2023/09/30 01:09:25;;;;;;;19.30;18.40;;;;;;;-141.02;84.74;42444.34;5112789;28;20730;-59
2023/09/30 01:11:52;;;;;;;19.70;18.70;;;;;;;-141.02;84.04;42463.53;5112744;28;20527;-64
2023/09/30 01:14:27;;;;;;;19.35;18.45;;;;;;;-141.02;85.22;42444.34;5112995;28;20628;-63
2023/09/30 01:16:56;;;;;;;19.13;18.23;;;;;;;-141.02;84.45;42440.50;5112671;28;20242;-60
2023/09/30 01:19:25;;;;;;;19.60;18.60;;;;;;;-141.02;85.03;42452.00;5112946;28;20647;-64
2023/09/30 01:21:56;;;;;;;19.13;18.23;;;;;;;-141.02;84.27;42453.94;5112889;28;20197;-63
2023/09/30 01:24:23;;;;;;;19.17;18.27;;;;;;;-141.02;84.64;42482.72;5112981;28;20189;-64
2023/09/30 01:26:50;;;;;;;19.45;18.45;;;;;;;-141.02;83.08;42482.72;5112697;28;20266;-59
2023/09/30 01:29:17;;;;;;;19.50;18.50;;;;;;;-141.02;82.06;42486.56;5112155;28;20232;-59
2023/09/30 01:31:47;;;;;;;19.83;18.83;;;;;;;-141.02;81.34;42461.59;5112799;28;20217;-61
2023/09/30 01:34:15;;;;;;;19.75;18.75;;;;;;;-141.02;81.49;42492.31;5113233;28;20572;-64
2023/09/30 01:36:42;;;;;;;19.80;18.80;;;;;;;-141.02;82.50;42452.00;5112801;28;20203;-58
2023/09/30 01:39:11;;;;;;;19.88;18.88;;;;;;;-141.02;82.20;42494.25;5112400;28;20235;-61
2023/09/30 01:41:38;;;;;;;19.63;18.63;;;;;;;-141.02;82.19;42501.91;5112689;28;20255;-62
2023/09/30 01:44:06;;;;;;;19.30;18.35;;;;;;;-141.02;81.60;42494.25;5112589;28;20189;-63
2023/09/30 01:46:33;;;;;;;19.27;18.38;;;;;;;-141.02;81.20;42498.06;5112737;28;20258;-65
2023/09/30 01:49:00;;;;;;;19.15;18.25;;;;;;;-141.02;81.65;42513.44;5112569;28;20220;-61
2023/09/30 01:51:27;;;;;;;19.25;18.25;;;;;;;-141.02;81.47;42500.00;5112112;28;20289;-61
2023/09/30 01:53:54;;;;;;;19.58;18.58;;;;;;;-141.02;82.52;42513.44;5112295;28;20311;-64
2023/09/30 01:56:23;;;;;;;19.95;18.95;;;;;;;-141.02;83.03;42496.16;5112503;28;20319;-65
2023/09/30 01:58:50;;;;;;;19.67;18.67;;;;;;;-141.02;83.11;42536.47;5112240;28;20197;-58
2023/09/30 02:01:17;;;;;;;19.85;18.85;;;;;;;-141.02;85.07;42505.75;5112881;28;20254;-64
2023/09/30 02:03:44;;;;;;;19.17;18.27;;;;;;;-141.02;85.35;42507.69;5112511;28;20197;-65
2023/09/30 02:06:11;;;;;;;18.70;17.80;;;;;;;-141.02;85.99;42490.41;5112313;28;20288;-61
2023/09/30 02:08:38;;;;;;;19.13;18.23;;;;;;;-141.02;86.31;42490.41;5112405;28;20193;-64
2023/09/30 02:11:06;;;;;;;19.08;18.17;;;;;;;-141.02;86.44;42482.72;5112452;28;20250;-58
2023/09/30 02:13:35;;;;;;;18.90;18.00;;;;;;;-141.02;85.45;42498.06;5112127;28;20702;-60
2023/09/30 02:16:02;;;;;;;18.60;17.70;;;;;;;-141.02;85.85;42505.75;5112152;28;20193;-63
2023/09/30 02:18:32;;;;;;;18.75;17.85;;;;;;;-141.02;86.09;42505.75;5112411;28;20639;-65
2023/09/30 02:20:59;;;;;;;18.80;17.90;;;;;;;-141.02;85.88;42486.56;5112006;28;20723;-64
2023/09/30 02:23:26;;;;;;;18.88;17.98;;;;;;;-141.02;86.76;42496.16;5112066;28;20193;-63
2023/09/30 02:25:53;;;;;;;18.77;17.88;;;;;;;-141.02;87.75;42482.72;5112303;28;20276;-64
2023/09/30 02:28:20;;;;;;;18.42;17.52;;;;;;;-141.02;88.09;42467.38;5111997;28;20197;-63
2023/09/30 02:30:49;;;;;;;18.40;17.50;;;;;;;-141.02;87.67;42471.19;5111937;28;20316;-62
2023/09/30 02:33:16;;;;;;;18.13;17.33;;;;;;;-141.02;87.95;42494.25;5111860;28;20342;-60
2023/09/30 02:35:46;;;;;;;18.30;17.50;;;;;;;-141.02;88.62;42480.81;5111907;28;20242;-64
2023/09/30 02:38:15;;;;;;;18.40;17.50;;;;;;;-141.02;87.37;42478.88;5111901;28;20750;-60
2023/09/30 02:40:55;;;;;;;18.48;17.58;;;;;;;-141.02;86.60;42496.16;5114420;28;20197;-62
2023/09/30 02:43:22;;;;;;;18.52;17.63;;;;;;;-141.02;86.26;42494.25;5115519;28;20204;-61
2023/09/30 02:45:51;;;;;;;18.60;17.70;;;;;;;-141.02;85.49;42467.38;5116236;28;20596;-61
2023/09/30 02:48:18;;;;;;;18.58;17.67;;;;;;;-141.02;85.09;42471.19;5115840;28;20197;-63
2023/09/30 02:50:45;;;;;;;18.92;18.02;;;;;;;-141.02;85.14;42513.44;5115483;28;20211;-62
2023/09/30 02:53:12;;;;;;;18.77;17.88;;;;;;;-141.02;85.42;42467.38;5115624;28;20228;-58
2023/09/30 02:55:39;;;;;;;18.90;18.00;;;;;;;-141.02;85.26;42494.25;5115366;28;20193;-59
2023/09/30 02:58:07;;;;;;;18.90;18.00;;;;;;;-141.02;84.27;42501.91;5115581;28;20255;-63
2023/09/30 03:00:34;;;;;;;17.92;17.13;;;;;;;-141.02;84.90;42490.41;5115534;27;20189;-64
2023/09/30 03:03:03;;;;;;;18.88;17.98;;;;;;;-141.02;85.32;42513.44;5115543;28;20254;-61
2023/09/30 03:05:33;;;;;;;18.80;17.90;;;;;;;-141.02;86.77;42496.16;5115160;28;20250;-59
2023/09/30 03:08:01;;;;;;;19.00;18.10;;;;;;;-141.02;86.39;42498.06;5115438;28;20232;-57
2023/09/30 03:10:28;;;;;;;18.70;17.80;;;;;;;-141.02;86.93;42471.19;5115000;28;20573;-58
2023/09/30 03:12:55;;;;;;;19.15;18.25;;;;;;;-141.02;86.30;42528.78;5114932;28;20197;-59
2023/09/30 03:15:23;;;;;;;18.98;18.08;;;;;;;-141.02;88.30;42455.84;5115048;28;20254;-63
2023/09/30 03:18:05;;;;;;;18.95;18.05;;;;;;;-141.02;87.33;42526.88;5114881;28;20276;-64
2023/09/30 03:20:32;;;;;;;19.17;18.27;;;;;;;-141.02;87.79;42486.56;5114896;28;20251;-64
2023/09/30 03:22:59;;;;;;;19.17;18.27;;;;;;;-141.02;88.19;42501.91;5115001;28;20247;-63
2023/09/30 03:25:26;;;;;;;18.73;17.85;;;;;;;-141.02;89.05;42463.53;5115082;28;20197;-58
2023/09/30 03:27:53;;;;;;;19.10;18.20;;;;;;;-141.02;91.97;42427.06;5114965;28;20243;-62
2023/09/30 03:30:36;;;;;;;18.50;17.70;;;;;;;-141.02;90.98;42444.34;5114542;28;20271;-58
2023/09/30 03:33:05;;;;;;;18.30;17.50;;;;;;;-141.02;90.88;42375.22;5114779;28;20254;-59
2023/09/30 03:35:32;;;;;;;18.60;17.80;;;;;;;-141.02;91.98;42359.88;5114904;28;20197;-60
2023/09/30 03:38:00;;;;;;;18.20;17.40;;;;;;;-141.02;91.88;42363.72;5114446;28;20554;-63
2023/09/30 03:40:33;;;;;;;17.70;16.90;;;;;;;-141.02;93.92;42323.41;5114788;28;20201;-58
2023/09/30 03:43:00;;;;;;;17.48;16.67;;;;;;;-141.02;94.43;42292.69;5114451;28;20181;-61
2023/09/30 03:45:27;;;;;;;17.20;16.50;;;;;;;-141.02;96.70;42150.66;5114701;28;20197;-59
2023/09/30 03:47:54;;;;;;;17.20;16.50;;;;;;;-141.02;96.40;42060.44;5114351;28;20197;-64
2023/09/30 03:50:24;;;;;;;16.85;16.15;;;;;;;-141.02;95.37;42064.28;5113941;27;20218;-63
2023/09/30 03:52:51;;;;;;;17.08;16.38;;;;;;;-141.02;96.43;42010.53;5114536;28;20620;-61
2023/09/30 03:55:20;;;;;;;17.05;16.35;;;;;;;-141.02;97.08;41999.03;5114062;28;20320;-59
2023/09/30 03:57:48;;;;;;;17.02;16.33;;;;;;;-141.02;96.01;42002.88;5114539;28;20193;-60
2023/09/30 04:00:18;;;;;;;16.70;16.00;;;;;;;-141.02;97.12;41956.81;5114171;28;20666;-60
2023/09/30 04:02:48;;;;;;;15.90;15.30;;;;;;;-141.02;97.68;41952.97;5114040;28;20189;-61
2023/09/30 04:05:16;;;;;;;17.00;16.30;;;;;;;-141.02;97.95;41962.56;5113992;28;20204;-59
2023/09/30 04:07:45;;;;;;;15.93;15.32;;;;;;;-141.02;97.73;41935.69;5114193;28;20221;-58
2023/09/30 04:10:12;;;;;;;15.50;14.90;;;;;;;-141.02;98.22;41974.06;5113954;28;20228;-57
2023/09/30 04:12:39;;;;;;;16.77;16.08;;;;;;;-141.02;97.72;42010.53;5114129;28;20193;-59
2023/09/30 04:15:07;;;;;;;15.40;14.80;;;;;;;-141.02;98.52;42022.06;5114001;28;20228;-64
2023/09/30 04:17:34;;;;;;;15.38;14.77;;;;;;;-141.02;98.54;42060.44;5113995;28;20197;-61
2023/09/30 04:20:01;;;;;;;16.30;15.60;;;;;;;-141.02;97.59;42095.00;5114066;28;20231;-64
2023/09/30 04:22:29;;;;;;;15.30;14.70;;;;;;;-141.02;96.72;42167.94;5114008;28;20193;-58
2023/09/30 04:24:58;;;;;;;15.70;15.10;;;;;;;-141.02;95.21;42260.06;5113640;28;20226;-64
2023/09/30 04:27:25;;;;;;;15.88;15.23;;;;;;;-141.02;94.46;42277.34;5113874;28;20189;-61
2023/09/30 04:29:53;;;;;;;16.30;15.60;;;;;;;-141.02;94.03;42336.84;5113213;28;20640;-64
2023/09/30 04:32:20;;;;;;;16.58;15.88;;;;;;;-141.02;93.88;42382.91;5113763;28;20204;-58
2023/09/30 04:34:47;;;;;;;16.73;16.02;;;;;;;-141.02;93.87;42405.94;5113666;28;20332;-62
2023/09/30 04:37:14;;;;;;;16.75;16.05;;;;;;;-141.02;92.92;42461.59;5114236;28;20651;-58
2023/09/30 04:39:41;;;;;;;16.90;16.20;;;;;;;-141.02;93.10;42467.38;5113616;28;20228;-64
2023/09/30 04:42:11;;;;;;;16.77;16.08;;;;;;;-141.02;92.13;42505.75;5113483;28;20201;-61
2023/09/30 04:44:38;;;;;;;17.40;16.70;;;;;;;-141.02;92.19;42494.25;5113205;28;20189;-60
2023/09/30 04:47:06;;;;;;;17.80;17.00;;;;;;;-141.02;93.05;42461.59;5113490;28;20185;-60
2023/09/30 04:49:33;;;;;;;16.60;15.90;;;;;;;-141.02;92.06;42463.53;5113132;28;20578;-63
2023/09/30 04:52:00;;;;;;;17.90;17.10;;;;;;;-141.02;91.76;42521.13;5113450;28;20189;-58
2023/09/30 04:54:29;;;;;;;18.13;17.33;;;;;;;-141.02;91.31;42496.16;5113228;28;20256;-59
2023/09/30 04:56:56;;;;;;;18.10;17.30;;;;;;;-141.02;90.78;42544.16;5112942;28;20193;-58
2023/09/30 04:59:25;;;;;;;18.25;17.45;;;;;;;-141.02;90.18;42548.00;5113271;28;20191;-63
2023/09/30 05:01:53;;;;;;;18.30;17.50;;;;;;;-141.02;90.75;42549.91;5112538;28;20219;-63
2023/09/30 05:04:20;;;;;;;17.95;17.15;;;;;;;-141.02;89.38;42590.22;5113072;28;20193;-64
2023/09/30 05:06:47;;;;;;;18.25;17.45;;;;;;;-141.02;89.67;42561.41;5113152;28;20197;-59
2023/09/30 05:09:14;;;;;;;17.73;16.92;;;;;;;-141.02;90.60;42603.66;5113140;28;20254;-60
2023/09/30 05:11:41;;;;;;;18.00;17.20;;;;;;;-141.02;89.94;42609.41;5112728;28;20192;-62
2023/09/30 05:14:07;;;;;;;16.92;16.23;;;;;;;-141.02;90.87;42617.09;5112662;28;20225;-57
2023/09/30 05:16:36;;;;;;;17.65;16.85;;;;;;;-141.02;89.39;42620.94;5112963;28;20193;-61
2023/09/30 05:19:04;;;;;;;18.05;17.25;;;;;;;-141.02;89.48;42634.38;5112711;28;20688;-60
2023/09/30 05:21:31;;;;;;;17.90;17.10;;;;;;;-141.02;89.15;42682.34;5112947;28;20200;-59
2023/09/30 05:23:58;;;;;;;17.70;16.90;;;;;;;-141.02;88.98;42680.44;5112478;28;20289;-61
2023/09/30 05:26:25;;;;;;;17.33;16.63;;;;;;;-141.02;89.58;42647.81;5112547;28;20770;-61
2023/09/30 05:28:52;;;;;;;17.45;16.65;;;;;;;-141.02;87.71;42657.41;5112612;28;20550;-58
2023/09/30 05:31:20;;;;;;;17.77;16.98;;;;;;;-141.02;88.08;42624.78;5112410;28;20630;-61
2023/09/30 05:33:50;;;;;;;18.17;17.33;;;;;;;-141.02;87.73;42628.63;5112735;28;20599;-59
2023/09/30 05:36:17;;;;;;;18.20;17.30;;;;;;;-141.02;87.18;42686.19;5112453;28;20197;-61
2023/09/30 05:38:44;;;;;;;17.90;17.00;;;;;;;-141.02;87.12;42711.16;5112438;28;20203;-59
2023/09/30 05:41:11;;;;;;;18.13;17.23;;;;;;;-141.02;86.51;42724.59;5112701;28;20285;-61
2023/09/30 05:43:38;;;;;;;18.05;17.15;;;;;;;-141.02;85.86;42728.44;5112738;28;20220;-60
2023/09/30 05:46:07;;;;;;;18.23;17.33;;;;;;;-141.02;86.45;42713.06;5112688;28;20196;-58
2023/09/30 05:48:34;;;;;;;18.23;17.33;;;;;;;-141.02;85.62;42713.06;5112315;28;20224;-59
2023/09/30 05:51:02;;;;;;;18.10;17.20;;;;;;;-141.02;85.46;42682.34;5112349;28;20235;-61
2023/09/30 05:53:32;;;;;;;18.15;17.25;;;;;;;-141.02;84.10;42739.94;5112302;28;20244;-63
2023/09/30 05:55:59;;;;;;;17.92;17.08;;;;;;;-141.02;83.68;42747.63;5112345;28;20209;-61
2023/09/30 05:58:27;;;;;;;18.55;17.65;;;;;;;-141.02;83.72;42713.06;5112564;28;20232;-62
2023/09/30 06:00:54;;;;;;;18.27;17.38;;;;;;;-141.02;83.44;42707.31;5112264;28;20728;-60
2023/09/30 06:03:21;;;;;;;18.55;17.65;;;;;;;-141.02;83.93;42732.28;5112654;28;20627;-58
2023/09/30 06:05:48;;;;;;;18.63;17.73;;;;;;;-141.02;83.69;42759.16;5112266;28;20292;-63
2023/09/30 06:08:17;;;;;;;18.83;17.92;;;;;;;-141.02;84.21;42724.59;5112184;28;20203;-63
2023/09/30 06:10:44;;;;;;;18.55;17.65;;;;;;;-141.02;82.79;42751.47;5112161;28;20655;-63
2023/09/30 06:13:12;;;;;;;18.90;18.00;;;;;;;-141.02;82.81;42770.66;5112307;28;20229;-64
2023/09/30 06:15:41;;;;;;;18.30;17.50;;;;;;;-141.02;82.31;42766.81;5116275;28;20316;-59
2023/09/30 06:18:09;;;;;;;18.75;17.85;;;;;;;-141.02;80.92;42759.16;5116126;28;20201;-63
2023/09/30 06:20:36;;;;;;;18.95;18.05;;;;;;;-141.02;81.26;42739.94;5116062;28;20189;-63
2023/09/30 06:23:04;;;;;;;18.90;18.00;;;;;;;-141.02;81.85;42695.81;5116000;28;20225;-58
2023/09/30 06:25:33;;;;;;;18.55;17.65;;;;;;;-141.02;80.35;42736.13;5116310;28;20201;-58
2023/09/30 06:28:00;;;;;;;18.58;17.67;;;;;;;-141.02;81.38;42743.78;5115839;28;20189;-63
2023/09/30 06:30:29;;;;;;;18.52;17.63;;;;;;;-141.02;81.49;42747.63;5115690;28;20703;-58
2023/09/30 06:32:57;;;;;;;18.40;17.50;;;;;;;-141.02;80.89;42755.31;5116083;28;20266;-64
2023/09/30 06:35:24;;;;;;;17.70;16.90;;;;;;;-141.02;80.50;42747.63;5115976;28;20235;-60
2023/09/30 06:37:51;;;;;;;18.45;17.55;;;;;;;-141.02;78.58;42749.56;5115705;28;20189;-62
2023/09/30 06:40:18;;;;;;;18.80;17.90;;;;;;;-141.02;79.43;42728.44;5116050;27;20567;-61
2023/09/30 06:42:47;;;;;;;19.00;18.10;;;;;;;-141.02;79.23;42749.56;5115919;28;20212;-62
2023/09/30 06:45:15;;;;;;;18.90;18.00;;;;;;;-141.02;79.12;42751.47;5115849;28;20605;-63
2023/09/30 06:47:42;;;;;;;18.65;17.75;;;;;;;-141.02;79.00;42739.94;5115863;28;20577;-62
2023/09/30 06:50:12;;;;;;;18.70;17.80;;;;;;;-141.02;78.98;42736.13;5115470;28;20610;-58
2023/09/30 06:52:42;;;;;;;19.65;18.50;;;;;;;-141.02;78.45;42751.47;5115422;28;20197;-64
2023/09/30 06:55:10;;;;;;;17.95;17.15;;;;;;;-141.02;78.36;42755.31;5115345;28;20212;-60
2023/09/30 06:57:40;;;;;;;17.80;17.00;;;;;;;-141.02;77.23;42732.28;5115355;28;20193;-58
2023/09/30 07:00:11;;;;;;;17.55;16.75;;;;;;;-141.02;77.11;42736.13;5115561;28;20295;-64
2023/09/30 07:02:40;;;;;;;17.55;16.75;;;;;;;-141.02;78.05;42713.06;5115286;27;20185;-64
2023/09/30 07:05:08;;;;;;;18.25;17.45;;;;;;;-141.02;76.51;42705.41;5115232;28;20246;-64
2023/09/30 07:07:35;;;;;;;18.50;17.60;;;;;;;-141.02;76.28;42732.28;5115456;28;20216;-64
2023/09/30 07:10:04;;;;;;;18.77;17.88;;;;;;;-141.02;75.56;42672.75;5115079;28;20559;-64
2023/09/30 07:12:31;;;;;;;18.33;17.42;;;;;;;-141.02;75.82;42690.03;5115037;27;20201;-58
2023/09/30 07:14:58;;;;;;;18.48;17.58;;;;;;;-141.02;74.54;42705.41;5114940;28;20231;-61
2023/09/30 07:17:27;;;;;;;18.27;17.38;;;;;;;-141.02;74.05;42690.03;5115011;28;20210;-62
2023/09/30 07:19:54;;;;;;;18.38;17.48;;;;;;;-141.02;74.81;42686.19;5115526;28;20196;-64
2023/09/30 07:22:21;;;;;;;18.27;17.38;;;;;;;-141.02;73.66;42709.25;5114958;28;20192;-58
2023/09/30 07:24:47;;;;;;;18.33;17.42;;;;;;;-141.02;72.22;42728.44;5114462;28;20193;-58
2023/09/30 07:27:14;;;;;;;18.52;17.73;;;;;;;-141.02;72.47;42795.63;5114421;28;20683;-61
2023/09/30 07:29:41;;;;;;;18.42;17.52;;;;;;;-141.02;72.04;42814.81;5114532;28;20286;-58
2023/09/30 07:32:09;;;;;;;16.77;15.98;;;;;;;-141.02;70.88;42851.28;5114698;28;20198;-59
2023/09/30 07:34:37;;;;;;;17.10;16.30;;;;;;;-141.02;71.16;42851.28;5114576;28;20221;-63
2023/09/30 07:37:04;;;;;;;17.77;16.90;;;;;;;-141.02;70.63;42862.81;5114858;28;20276;-59
2023/09/30 07:39:31;;;;;;;17.92;17.02;;;;;;;-141.02;69.69;42866.66;5114881;28;20300;-60
2023/09/30 07:41:58;;;;;;;17.58;16.77;;;;;;;-141.02;70.07;42858.97;5114788;28;20200;-63
2023/09/30 07:44:25;;;;;;;17.55;16.73;;;;;;;-141.02;69.14;42897.38;5114729;28;20193;-64
2023/09/30 07:46:52;;;;;;;18.88;17.88;;;;;;;-141.02;68.50;42918.50;5114653;28;20199;-59
2023/09/30 07:49:19;;;;;;;18.27;17.38;;;;;;;-141.02;68.61;42906.97;5114622;28;20193;-61
2023/09/30 07:51:48;;;;;;;18.27;17.38;;;;;;;-141.02;66.62;42931.94;5114569;27;20254;-64
2023/09/30 07:54:15;;;;;;;18.77;17.77;;;;;;;-141.02;66.42;42966.47;5114498;28;20232;-60
2023/09/30 07:56:42;;;;;;;18.65;17.65;;;;;;;-141.02;65.56;42993.34;5114546;27;20193;-65
2023/09/30 07:59:09;;;;;;;18.33;17.42;;;;;;;-141.02;64.69;43035.59;5114143;28;20288;-62
2023/09/30 08:01:37;;;;;;;18.30;17.40;;;;;;;-141.02;63.92;43050.97;5114094;27;20689;-64
2023/09/30 08:04:04;;;;;;;18.02;17.13;;;;;;;-141.02;62.90;43054.78;5114061;28;20662;-61
2023/09/30 08:06:31;;;;;;;18.17;17.27;;;;;;;-141.02;63.62;43102.78;5114272;28;20261;-62
2023/09/30 08:09:00;;;;;;;18.00;17.10;;;;;;;-141.02;62.63;43143.09;5113947;28;20203;-60
2023/09/30 08:11:27;;;;;;;18.10;17.20;;;;;;;-141.02;62.24;43112.41;5113796;28;20235;-59
2023/09/30 08:13:54;;;;;;;17.83;16.92;;;;;;;-141.02;61.97;43085.50;5114157;28;20193;-63
2023/09/30 08:16:21;;;;;;;17.98;17.08;;;;;;;-141.02;62.68;43098.94;5114031;28;20588;-63
2023/09/30 08:18:48;;;;;;;17.90;17.00;;;;;;;-141.02;61.61;43112.41;5114064;28;20576;-64
2023/09/30 08:21:15;;;;;;;17.92;17.02;;;;;;;-141.02;61.77;43137.34;5114014;28;20203;-64
2023/09/30 08:23:44;;;;;;;17.83;16.92;;;;;;;-141.02;61.70;43108.56;5113821;28;20221;-64
2023/09/30 08:26:12;;;;;;;17.92;17.02;;;;;;;-141.02;61.02;43127.75;5113891;28;20204;-64
2023/09/30 08:28:39;;;;;;;17.90;17.00;;;;;;;-141.02;60.56;43158.47;5113929;27;20249;-62
2023/09/30 08:31:06;;;;;;;17.90;17.00;;;;;;;-141.02;60.23;43158.47;5113383;28;20232;-64
2023/09/30 08:33:35;;;;;;;17.83;16.92;;;;;;;-141.02;60.33;43185.34;5113494;28;20193;-59
2023/09/30 08:36:07;;;;;;;17.75;16.85;;;;;;;-141.02;61.14;43156.56;5113218;28;20662;-62
2023/09/30 08:38:35;;;;;;;17.60;16.70;;;;;;;-141.02;60.76;43185.34;5112733;28;20185;-64
2023/09/30 08:41:03;;;;;;;17.67;16.77;;;;;;;-141.02;59.22;43171.91;5113598;28;20197;-61
2023/09/30 08:43:31;;;;;;;17.38;16.50;;;;;;;-141.02;58.88;43204.56;5113315;28;20207;-64
2023/09/30 08:45:59;;;;;;;17.13;16.33;;;;;;;-141.02;59.68;43181.50;5113612;28;20679;-65
2023/09/30 08:48:28;;;;;;;17.27;16.42;;;;;;;-141.02;58.14;43219.91;5113465;28;20201;-65
2023/09/30 08:50:56;;;;;;;17.63;16.73;;;;;;;-141.02;57.89;43231.44;5113455;28;20193;-60
2023/09/30 08:53:24;;;;;;;17.70;16.80;;;;;;;-141.02;57.79;43208.38;5113344;28;20189;-65
2023/09/30 08:55:55;;;;;;;17.50;16.60;;;;;;;-141.02;57.82;43227.59;5113340;28;20316;-64
2023/09/30 08:58:25;;;;;;;17.67;16.77;;;;;;;-141.02;57.01;43227.59;5113033;28;20189;-61
2023/09/30 09:00:53;;;;;;;17.40;16.50;;;;;;;-141.02;57.19;43242.94;5113252;28;20756;-64
2023/09/30 09:03:20;;;;;;;17.23;16.33;;;;;;;-141.02;56.44;43269.81;5113128;28;20224;-64
2023/09/30 09:05:48;;;;;;;17.33;16.42;;;;;;;-141.02;56.19;43208.38;5112899;28;20284;-64
2023/09/30 09:08:15;;;;;;;19.15;18.15;;;;;;;-141.02;57.08;43302.47;5112875;28;20204;-64
2023/09/30 09:10:55;;;;;;;17.42;16.52;;;;;;;-141.02;56.62;43296.72;5113138;28;20274;-64
2023/09/30 09:13:22;;;;;;;17.27;16.38;;;;;;;-141.02;56.47;43315.91;5113070;28;20645;-65
2023/09/30 09:15:49;;;;;;;17.30;16.50;;;;;;;-141.02;56.58;43323.59;5112938;28;20307;-64
2023/09/30 09:18:33;;;;;;;17.45;16.55;;;;;;;-141.02;55.92;43331.28;5112711;28;20197;-62
2023/09/30 09:21:11;;;;;;;16.70;15.90;;;;;;;-141.02;55.52;43227.59;5112696;28;20189;-64
2023/09/30 09:23:42;;;;;;;16.75;15.95;;;;;;;-141.02;55.77;43108.56;5112904;28;20228;-65
2023/09/30 09:26:10;;;;;;;16.55;15.75;;;;;;;-141.02;56.27;43381.19;5112628;28;20201;-65
2023/09/30 09:28:39;;;;;;;16.88;16.08;;;;;;;-141.02;55.65;43404.22;5112552;28;20280;-62
2023/09/30 09:31:23;;;;;;;16.95;16.15;;;;;;;-141.02;55.67;43314.00;5112398;28;20316;-58
2023/09/30 09:33:52;;;;;;;16.95;16.15;;;;;;;-141.02;55.83;43360.06;5112451;28;20646;-65
2023/09/30 09:36:19;;;;;;;16.95;16.15;;;;;;;-141.02;54.90;43062.47;5112715;28;20357;-64
2023/09/30 09:38:48;;;;;;;16.95;16.15;;;;;;;-141.02;54.98;43386.94;5112751;28;20193;-64
2023/09/30 09:41:15;;;;;;;17.17;16.38;;;;;;;-141.02;54.78;43127.75;5112760;28;20197;-64
2023/09/30 09:43:42;;;;;;;16.85;16.05;;;;;;;-141.02;55.53;43231.44;5112715;28;20296;-59
2023/09/30 09:46:10;;;;;;;16.40;15.60;;;;;;;-141.02;57.58;43308.22;5112719;28;20193;-64
2023/09/30 09:48:37;;;;;;;16.05;15.35;;;;;;;-141.02;56.88;43342.78;5113330;28;20240;-63
2023/09/30 09:51:07;;;;;;;16.08;15.27;;;;;;;-141.02;55.78;43521.34;5116845;28;20193;-64
2023/09/30 09:53:37;;;;;;;16.25;15.45;;;;;;;-141.02;55.72;43500.25;5116683;28;20193;-61
2023/09/30 09:56:05;;;;;;;16.25;15.45;;;;;;;-141.02;54.58;43281.34;5116749;28;20609;-64
2023/09/30 09:58:34;;;;;;;16.35;15.55;;;;;;;-141.02;55.28;43289.03;5116530;28;20206;-65
2023/09/30 10:01:02;;;;;;;16.25;15.45;;;;;;;-141.02;55.90;43542.47;5116711;28;20193;-66
2023/09/30 10:03:30;;;;;;;16.52;15.73;;;;;;;-141.02;55.44;43492.56;5116662;28;20197;-64
2023/09/30 10:05:58;;;;;;;16.17;15.38;;;;;;;-141.02;53.68;43442.63;5116654;28;20196;-64
2023/09/30 10:08:33;;;;;;;16.80;16.00;;;;;;;-141.02;53.98;43429.19;5116588;28;20226;-65
2023/09/30 10:11:01;;;;;;;16.33;15.52;;;;;;;-141.02;54.15;43484.88;5116318;28;20184;-65
2023/09/30 10:13:55;;;;;;;16.17;15.38;;;;;;;-141.02;55.13;43515.59;5116383;28;20235;-62
2023/09/30 10:16:51;;;;;;;16.25;15.45;;;;;;;-141.02;54.62;43484.88;5116372;28;20221;-65
2023/09/30 10:19:22;;;;;;;16.33;15.52;;;;;;;-141.02;54.70;43477.19;5116068;28;20197;-65
2023/09/30 10:22:24;;;;;;;16.95;16.05;;;;;;;-141.02;54.67;43362.00;5116082;28;20201;-64
2023/09/30 10:24:54;;;;;;;16.73;15.93;;;;;;;-141.02;55.73;43463.75;5116211;28;20215;-66
2023/09/30 10:27:36;;;;;;;16.40;15.60;;;;;;;-141.02;55.74;43561.69;5115960;28;20241;-64
2023/09/30 10:30:13;;;;;;;16.20;15.40;;;;;;;-141.02;54.89;43534.78;5115899;27;20233;-61
2023/09/30 10:33:14;;;;;;;34.83;32.42;;;;;;;-141.02;54.41;43392.72;5116724;28;20250;-62
2023/09/30 10:35:49;;;;;;;16.48;15.68;;;;;;;-141.02;54.52;43323.59;5116021;28;20222;-65
2023/09/30 10:38:38;;;;;;;16.40;15.60;;;;;;;-141.02;55.27;43446.47;5116087;28;20188;-66
2023/09/30 10:41:08;;;;;;;16.58;15.77;;;;;;;-141.02;55.59;43592.41;5115663;28;20232;-59
2023/09/30 10:43:36;;;;;;;16.42;15.63;;;;;;;-141.02;55.12;43578.97;5115662;28;20194;-65
2023/09/30 10:46:06;;;;;;;16.52;15.73;;;;;;;-141.02;54.89;43577.03;5115448;28;20204;-61
2023/09/30 10:48:35;;;;;;;16.67;15.88;;;;;;;-141.02;54.40;43567.44;5115512;28;20207;-65
2023/09/30 10:51:12;;;;;;;19.25;18.23;;;;;;;-141.02;54.02;43569.34;5115723;28;20199;-63
2023/09/30 10:53:44;;;;;;;16.45;15.65;;;;;;;-141.02;53.66;43532.88;5115745;28;20663;-63
2023/09/30 10:56:12;;;;;;;16.38;15.57;;;;;;;-141.02;54.06;43554.00;5115303;28;20248;-62
2023/09/30 10:58:43;;;;;;;16.48;15.68;;;;;;;-141.02;53.98;43546.31;5115582;28;20200;-63
2023/09/30 11:01:11;;;;;;;16.50;15.70;;;;;;;-141.02;53.15;43546.31;5114168;28;20193;-59
2023/09/30 11:03:38;;;;;;;16.67;15.88;;;;;;;-141.02;52.86;43561.69;5115546;28;20193;-66
2023/09/30 11:06:05;;;;;;;16.77;15.98;;;;;;;-141.02;53.49;43580.88;5115431;28;20310;-62
2023/09/30 11:08:34;;;;;;;16.40;15.60;;;;;;;-141.02;53.60;43565.53;5115098;28;20232;-63